createdAt,value
2023-02-17T00:00:08.689Z,95.26
2023-02-17T00:02:37.775Z,95.31
2023-02-17T00:05:07.104Z,95.32
2023-02-17T00:07:35.764Z,94.36
2023-02-17T00:10:04.599Z,95.22
2023-02-17T00:12:32.888Z,95.99
2023-02-17T00:15:00.945Z,96.21
2023-02-17T00:17:30.068Z,96.82
2023-02-17T00:19:58.428Z,97.87
2023-02-17T00:22:26.796Z,97.33
2023-02-17T00:24:55.371Z,98.36
2023-02-17T00:27:23.697Z,97.95
2023-02-17T00:29:53.714Z,98.67
2023-02-17T00:32:22.108Z,97.73
2023-02-17T00:34:52.919Z,97.62
2023-02-17T00:37:21.404Z,96.91
2023-02-17T00:39:50.123Z,96.69
2023-02-17T00:42:19.630Z,97.15
2023-02-17T00:44:48.072Z,96.78
2023-02-17T00:47:16.277Z,97.50
2023-02-17T00:49:44.770Z,97.75
2023-02-17T00:52:13.133Z,98.78
2023-02-17T00:54:41.997Z,99.09
2023-02-17T00:57:11.636Z,98.75
2023-02-17T00:59:42.779Z,98.38
2023-02-17T01:02:11.065Z,98.06
2023-02-17T01:04:39.676Z,97.84
2023-02-17T01:07:07.832Z,97.61
2023-02-17T01:09:35.954Z,97.51
2023-02-17T01:12:05.782Z,97.84
2023-02-17T01:14:34.098Z,98.03
2023-02-17T01:17:02.289Z,96.89
2023-02-17T01:19:30.938Z,97.04
2023-02-17T01:21:59.371Z,97.03
2023-02-17T01:24:28.427Z,97.36
2023-02-17T01:26:57.355Z,96.95
2023-02-17T01:29:28.035Z,97.24
2023-02-17T01:31:56.950Z,97.02
2023-02-17T01:34:25.066Z,97.19
2023-02-17T01:36:53.285Z,97.26
2023-02-17T01:39:21.703Z,97.61
2023-02-17T01:41:49.836Z,98.05
2023-02-17T01:44:21.999Z,97.68
2023-02-17T01:46:53.128Z,97.66
2023-02-17T01:49:33.176Z,97.63
2023-02-17T01:52:13.739Z,97.63
2023-02-17T01:54:51.876Z,98.39
2023-02-17T01:57:23.788Z,98.75
2023-02-17T01:59:52.638Z,97.44
2023-02-17T02:02:21.985Z,98.92
2023-02-17T02:04:53.981Z,99.15
2023-02-17T02:07:28.886Z,100.00
2023-02-17T02:09:59.625Z,99.71
2023-02-17T02:12:33.936Z,99.17
2023-02-17T02:15:08.269Z,98.79
2023-02-17T02:17:55.012Z,99.53
2023-02-17T02:20:47.756Z,100.00
2023-02-17T02:23:56.332Z,100.00
2023-02-17T02:26:43.835Z,100.00
2023-02-17T02:29:23.929Z,100.00
2023-02-17T02:32:47.354Z,100.00
2023-02-17T02:35:44.479Z,100.00
2023-02-17T02:38:22.296Z,99.11
2023-02-17T02:40:57.030Z,97.16
2023-02-17T02:43:26.986Z,96.97
2023-02-17T02:45:55.259Z,96.67
2023-02-17T02:48:23.482Z,95.77
2023-02-17T02:51:14.147Z,94.97
2023-02-17T02:54:09.022Z,94.74
2023-02-17T02:56:54.700Z,94.08
2023-02-17T02:59:34.831Z,94.02
2023-02-17T03:02:29.952Z,92.92
2023-02-17T03:05:20.016Z,93.14
2023-02-17T03:08:10.421Z,92.41
2023-02-17T03:10:51.180Z,91.76
2023-02-17T03:13:20.984Z,90.34
2023-02-17T03:15:49.871Z,90.04
2023-02-17T03:18:19.035Z,90.05
2023-02-17T03:20:55.291Z,90.07
2023-02-17T03:23:23.495Z,89.08
2023-02-17T03:25:52.252Z,89.12
2023-02-17T03:28:20.664Z,88.89
2023-02-17T03:30:49.170Z,88.09
2023-02-17T03:33:17.557Z,87.87
2023-02-17T03:35:45.991Z,88.10
2023-02-17T03:38:14.205Z,88.57
2023-02-17T03:40:42.873Z,88.39
2023-02-17T03:43:11.346Z,88.65
2023-02-17T03:45:39.491Z,88.64
2023-02-17T03:48:08.219Z,88.59
2023-02-17T03:50:36.473Z,88.28
2023-02-17T03:53:05.322Z,88.41
2023-02-17T03:55:33.925Z,89.08
2023-02-17T03:58:02.406Z,89.00
2023-02-17T04:00:30.804Z,88.09
2023-02-17T04:02:59.284Z,88.96
2023-02-17T04:05:27.671Z,90.32
2023-02-17T04:07:56.149Z,91.43
2023-02-17T04:10:24.656Z,92.20
2023-02-17T04:12:52.807Z,92.46
2023-02-17T04:15:21.025Z,93.15
2023-02-17T04:17:49.626Z,93.81
2023-02-17T04:20:17.845Z,94.67
2023-02-17T04:22:46.578Z,95.03
2023-02-17T04:25:14.894Z,95.42
2023-02-17T04:27:43.291Z,96.54
2023-02-17T04:30:12.510Z,96.42
2023-02-17T04:32:40.939Z,98.00
2023-02-17T04:35:09.244Z,97.78
2023-02-17T04:37:37.547Z,98.11
2023-02-17T04:40:10.753Z,97.91
2023-02-17T04:42:39.197Z,99.10
2023-02-17T04:45:08.411Z,100.00
2023-02-17T04:47:37.173Z,100.00
2023-02-17T04:50:07.049Z,100.00
2023-02-17T04:52:35.468Z,100.00
2023-02-17T04:55:04.910Z,100.00
2023-02-17T04:57:33.559Z,100.00
2023-02-17T05:00:02.352Z,100.00
2023-02-17T05:02:30.992Z,100.00
2023-02-17T05:04:59.336Z,100.00
2023-02-17T05:07:27.672Z,100.00
2023-02-17T05:09:56.045Z,100.00
2023-02-17T05:12:24.619Z,100.00
2023-02-17T05:14:53.057Z,100.00
2023-02-17T05:17:21.373Z,100.00
2023-02-17T05:19:49.559Z,100.00
2023-02-17T05:22:18.081Z,100.00
2023-02-17T05:24:46.388Z,100.00
2023-02-17T05:27:14.610Z,100.00
2023-02-17T05:29:43.146Z,100.00
2023-02-17T05:32:11.373Z,100.00
2023-02-17T05:34:39.603Z,100.00
2023-02-17T05:37:08.070Z,100.00
2023-02-17T05:39:36.406Z,100.00
2023-02-17T05:42:04.695Z,100.00
2023-02-17T05:44:33.125Z,100.00
2023-02-17T05:47:01.623Z,100.00
2023-02-17T05:49:29.930Z,100.00
2023-02-17T05:51:58.372Z,100.00
2023-02-17T05:54:26.537Z,100.00
2023-02-17T05:56:54.748Z,100.00
2023-02-17T05:59:26.326Z,100.00
2023-02-17T06:01:54.564Z,100.00
2023-02-17T06:04:23.163Z,100.00
2023-02-17T06:06:51.354Z,100.00
2023-02-17T06:09:19.808Z,100.00
2023-02-17T06:11:48.479Z,100.00
2023-02-17T06:14:16.592Z,100.00
2023-02-17T06:16:44.740Z,100.00
2023-02-17T06:19:13.192Z,100.00
2023-02-17T06:21:41.266Z,100.00
2023-02-17T06:24:09.574Z,100.00
2023-02-17T06:26:38.056Z,100.00
2023-02-17T06:29:06.880Z,100.00
2023-02-17T06:31:35.860Z,100.00
2023-02-17T06:34:06.568Z,100.00
2023-02-17T06:36:35.020Z,100.00
2023-02-17T06:39:03.648Z,99.24
2023-02-17T06:41:32.416Z,98.98
2023-02-17T06:44:00.537Z,99.24
2023-02-17T06:46:28.743Z,100.00
2023-02-17T06:48:57.339Z,100.00
2023-02-17T06:51:25.606Z,100.00
2023-02-17T06:53:53.898Z,100.00
2023-02-17T06:56:22.336Z,96.79
2023-02-17T06:58:51.186Z,93.95
2023-02-17T07:01:26.263Z,94.11
2023-02-17T07:03:56.208Z,92.89
2023-02-17T07:06:25.345Z,91.51
2023-02-17T07:08:54.140Z,87.70
2023-02-17T07:11:22.686Z,85.69
2023-02-17T07:13:50.766Z,85.57
2023-02-17T07:16:21.326Z,83.56
2023-02-17T07:18:49.664Z,82.71
2023-02-17T07:21:17.937Z,82.46
2023-02-17T07:23:46.604Z,82.03
2023-02-17T07:26:15.202Z,82.26
2023-02-17T07:28:43.530Z,82.19
2023-02-17T07:31:15.253Z,83.02
2023-02-17T07:33:45.582Z,83.37
2023-02-17T07:36:15.869Z,83.60
2023-02-17T07:38:44.713Z,86.80
2023-02-17T07:41:17.068Z,87.77
2023-02-17T07:43:47.771Z,87.56
2023-02-17T07:46:17.489Z,88.54
2023-02-17T07:48:46.672Z,88.59
2023-02-17T07:51:18.241Z,91.64
2023-02-17T07:53:47.595Z,88.05
2023-02-17T07:56:17.908Z,83.38
2023-02-17T07:58:46.810Z,81.88
2023-02-17T08:01:17.564Z,82.48
2023-02-17T08:03:46.729Z,83.07
2023-02-17T08:06:18.926Z,83.25
2023-02-17T08:09:07.047Z,84.39
2023-02-17T08:11:54.958Z,85.55
2023-02-17T08:14:25.321Z,84.27
2023-02-17T08:16:53.721Z,85.38
2023-02-17T08:19:22.823Z,84.88
2023-02-17T08:21:51.579Z,83.75
2023-02-17T08:24:20.289Z,81.60
2023-02-17T08:26:49.751Z,79.55
2023-02-17T08:29:20.241Z,80.69
2023-02-17T08:31:52.929Z,78.07
2023-02-17T08:34:21.373Z,76.60
2023-02-17T08:36:49.749Z,81.37
2023-02-17T08:39:18.692Z,82.10
2023-02-17T08:41:48.211Z,82.13
2023-02-17T08:44:19.330Z,78.75
2023-02-17T08:46:49.334Z,78.21
2023-02-17T08:49:19.938Z,76.87
2023-02-17T08:51:49.630Z,75.56
2023-02-17T08:54:17.948Z,74.78
2023-02-17T08:56:46.294Z,74.38
2023-02-17T08:59:15.797Z,73.24
2023-02-17T09:01:44.406Z,70.57
2023-02-17T09:04:14.682Z,64.78
2023-02-17T09:06:49.643Z,60.32
2023-02-17T09:09:22.400Z,60.87
2023-02-17T09:11:51.114Z,65.75
2023-02-17T09:14:19.408Z,64.29
2023-02-17T09:16:47.464Z,60.60
2023-02-17T09:19:16.290Z,62.42
2023-02-17T09:21:45.158Z,64.13
2023-02-17T09:24:14.635Z,69.17
2023-02-17T09:26:43.473Z,69.48
2023-02-17T09:29:11.808Z,66.61
2023-02-17T09:31:40.439Z,58.37
2023-02-17T09:34:09.012Z,55.51
2023-02-17T09:36:41.985Z,55.09
2023-02-17T09:39:13.560Z,55.40
2023-02-17T09:41:52.253Z,55.28
2023-02-17T09:44:44.973Z,54.36
2023-02-17T09:47:20.747Z,54.77
2023-02-17T09:49:57.225Z,53.93
2023-02-17T09:52:36.135Z,54.80
2023-02-17T09:55:27.981Z,54.29
2023-02-17T09:58:05.965Z,53.47
2023-02-17T10:00:41.632Z,53.05
2023-02-17T10:03:17.943Z,53.26
2023-02-17T10:05:53.659Z,54.67
2023-02-17T10:08:27.558Z,53.46
2023-02-17T10:11:12.305Z,54.67
2023-02-17T10:13:44.633Z,55.26
2023-02-17T10:16:21.807Z,55.52
2023-02-17T10:19:04.849Z,54.99
2023-02-17T10:21:40.725Z,56.87
2023-02-17T10:24:09.938Z,55.13
2023-02-17T10:27:00.758Z,54.80
2023-02-17T10:29:41.835Z,53.88
2023-02-17T10:32:27.713Z,53.25
2023-02-17T10:35:16.165Z,53.74
2023-02-17T10:38:02.284Z,54.39
2023-02-17T10:40:31.563Z,54.24
2023-02-17T10:43:07.752Z,53.97
2023-02-17T10:45:43.007Z,54.45
2023-02-17T10:48:40.868Z,54.68
2023-02-17T10:51:15.610Z,54.21
2023-02-17T10:53:48.806Z,53.42
2023-02-17T10:56:23.619Z,54.54
2023-02-17T10:59:00.856Z,53.71
2023-02-17T11:01:29.561Z,54.01
2023-02-17T11:04:06.728Z,54.27
2023-02-17T11:07:11.542Z,54.31
2023-02-17T11:09:46.229Z,53.67
2023-02-17T11:12:34.536Z,52.92
2023-02-17T11:15:05.298Z,53.61
2023-02-17T11:17:39.523Z,53.84
2023-02-17T11:20:28.559Z,53.48
2023-02-17T11:23:04.354Z,52.41
2023-02-17T11:25:35.500Z,53.12
2023-02-17T11:28:13.087Z,52.17
2023-02-17T11:30:51.226Z,52.23
2023-02-17T11:33:31.459Z,53.25
2023-02-17T11:36:00.647Z,52.31
2023-02-17T11:38:38.902Z,53.20
2023-02-17T11:41:08.716Z,52.19
2023-02-17T11:43:38.085Z,52.42
2023-02-17T11:46:24.592Z,53.86
2023-02-17T11:49:18.986Z,53.04
2023-02-17T11:52:05.256Z,53.18
2023-02-17T11:55:00.211Z,53.06
2023-02-17T11:57:40.849Z,53.01
2023-02-17T12:00:15.192Z,53.71
2023-02-17T12:03:01.369Z,53.37
2023-02-17T12:05:58.944Z,53.74
2023-02-17T12:09:05.229Z,53.01
2023-02-17T12:12:01.683Z,53.82
2023-02-17T12:14:41.296Z,53.29
2023-02-17T12:17:58.155Z,53.84
2023-02-17T12:20:47.551Z,54.37
2023-02-17T12:23:36.770Z,53.90
2023-02-17T12:26:20.149Z,53.35
2023-02-17T12:29:10.789Z,53.97
2023-02-17T12:31:49.068Z,53.23
2023-02-17T12:34:26.161Z,53.21
2023-02-17T12:36:56.636Z,53.86
2023-02-17T12:39:56.173Z,55.52
2023-02-17T12:42:37.374Z,54.81
2023-02-17T12:45:16.076Z,53.17
2023-02-17T12:47:55.450Z,52.56
2023-02-17T12:50:33.364Z,51.23
2023-02-17T12:53:06.778Z,51.03
2023-02-17T12:55:48.821Z,50.61
2023-02-17T12:58:26.903Z,51.43
2023-02-17T13:01:07.267Z,51.68
2023-02-17T13:03:37.030Z,51.08
2023-02-17T13:06:11.325Z,51.95
2023-02-17T13:08:47.022Z,52.21
2023-02-17T13:11:34.555Z,52.86
2023-02-17T13:14:25.283Z,53.75
2023-02-17T13:16:54.730Z,56.15
2023-02-17T13:19:31.628Z,57.27
2023-02-17T13:22:02.444Z,58.81
2023-02-17T13:24:36.831Z,59.07
2023-02-17T13:27:23.028Z,59.47
2023-02-17T13:30:18.474Z,59.72
2023-02-17T13:32:46.979Z,61.33
2023-02-17T13:35:30.779Z,61.43
2023-02-17T13:37:59.433Z,62.78
2023-02-17T13:40:30.604Z,63.63
2023-02-17T13:43:28.639Z,65.39
2023-02-17T13:46:02.938Z,66.62
2023-02-17T13:48:36.067Z,66.97
2023-02-17T13:51:23.767Z,68.19
2023-02-17T13:53:52.852Z,69.55
2023-02-17T13:56:30.316Z,72.70
2023-02-17T13:59:11.645Z,73.43
2023-02-17T14:01:42.694Z,74.34
2023-02-17T14:04:28.074Z,73.99
2023-02-17T14:07:03.926Z,75.08
2023-02-17T14:09:35.471Z,74.27
2023-02-17T14:12:06.839Z,74.58
2023-02-17T14:14:38.452Z,73.83
2023-02-17T14:17:13.310Z,74.03
2023-02-17T14:19:44.123Z,75.42
2023-02-17T14:22:33.389Z,74.23
2023-02-17T14:25:13.831Z,75.53
2023-02-17T14:27:47.834Z,76.00
2023-02-17T14:30:30.359Z,76.24
2023-02-17T14:33:18.346Z,76.52
2023-02-17T14:35:59.582Z,77.22
2023-02-17T14:38:32.086Z,78.18
2023-02-17T14:41:02.248Z,78.31
2023-02-17T14:43:30.554Z,78.13
2023-02-17T14:45:58.634Z,78.93
2023-02-17T14:48:28.137Z,77.20
2023-02-17T14:50:57.619Z,78.81
2023-02-17T14:53:27.699Z,77.87
2023-02-17T14:56:01.231Z,77.01
2023-02-17T14:58:30.326Z,78.86
2023-02-17T15:00:59.764Z,79.16
2023-02-17T15:03:28.596Z,79.69
2023-02-17T15:05:57.228Z,77.50
2023-02-17T15:08:33.419Z,77.26
2023-02-17T15:11:02.316Z,79.67
2023-02-17T15:13:31.904Z,75.61
2023-02-17T15:16:00.644Z,74.64
2023-02-17T15:18:29.283Z,75.25
2023-02-17T15:20:57.869Z,74.04
2023-02-17T15:23:30.659Z,74.44
2023-02-17T15:26:00.380Z,75.92
2023-02-17T15:28:28.916Z,77.62
2023-02-17T15:30:57.164Z,78.66
2023-02-17T15:33:26.046Z,79.04
2023-02-17T15:35:57.558Z,79.99
2023-02-17T15:38:27.598Z,80.83
2023-02-17T15:40:58.618Z,81.58
2023-02-17T15:46:13.593Z,75.27
2023-02-17T15:48:43.869Z,71.90
2023-02-17T15:51:16.184Z,73.72
2023-02-17T15:53:46.366Z,74.66
2023-02-17T15:56:23.796Z,75.12
2023-02-17T15:58:53.769Z,77.19
2023-02-17T16:01:33.828Z,74.17
2023-02-17T16:04:02.647Z,75.59
2023-02-17T16:06:31.042Z,75.47
2023-02-17T16:08:59.759Z,76.63
2023-02-17T16:11:28.940Z,77.19
2023-02-17T16:13:57.330Z,77.22
2023-02-17T16:16:34.554Z,77.55
2023-02-17T16:19:03.104Z,75.57
2023-02-17T16:21:34.578Z,75.62
2023-02-17T16:24:03.351Z,74.82
2023-02-17T16:26:35.186Z,74.97
2023-02-17T16:29:14.538Z,73.26
2023-02-17T16:31:43.548Z,73.60
2023-02-17T16:34:17.468Z,74.24
2023-02-17T16:36:47.010Z,76.61
2023-02-17T16:39:17.699Z,76.04
2023-02-17T16:41:47.659Z,77.00
2023-02-17T16:44:18.944Z,76.66
2023-02-17T16:46:52.773Z,77.64
2023-02-17T16:49:32.589Z,77.81
2023-02-17T16:52:03.000Z,78.43
2023-02-17T16:54:35.176Z,78.78
2023-02-17T16:57:04.369Z,80.70
2023-02-17T16:59:32.910Z,80.14
2023-02-17T17:02:01.788Z,81.85
2023-02-17T17:04:30.243Z,80.87
2023-02-17T17:06:58.628Z,82.16
2023-02-17T17:09:27.998Z,81.09
2023-02-17T17:11:56.860Z,81.96
2023-02-17T17:14:25.671Z,82.80
2023-02-17T17:17:01.067Z,82.83
2023-02-17T17:19:29.644Z,82.58
2023-02-17T17:21:57.848Z,82.81
2023-02-17T17:24:26.489Z,82.75
2023-02-17T17:26:56.010Z,83.04
2023-02-17T17:29:24.426Z,84.18
2023-02-17T17:31:52.880Z,83.82
2023-02-17T17:34:22.722Z,84.03
2023-02-17T17:36:51.131Z,85.58
2023-02-17T17:39:23.315Z,83.14
2023-02-17T17:41:52.468Z,83.72
2023-02-17T17:44:22.081Z,82.86
2023-02-17T17:46:50.558Z,83.72
2023-02-17T17:49:19.522Z,84.08
2023-02-17T17:51:48.964Z,82.23
2023-02-17T17:54:17.623Z,82.20
2023-02-17T17:56:47.519Z,83.52
2023-02-17T17:59:15.950Z,84.29
2023-02-17T18:01:45.879Z,84.67
2023-02-17T18:04:14.708Z,85.77
2023-02-17T18:06:50.516Z,87.25
2023-02-17T18:09:32.066Z,88.00
2023-02-17T18:12:04.540Z,89.71
2023-02-17T18:14:36.832Z,90.97
2023-02-17T18:17:05.927Z,91.79
2023-02-17T18:19:34.822Z,92.56
2023-02-17T18:22:03.308Z,93.27
2023-02-17T18:24:31.710Z,94.07
2023-02-17T18:27:00.474Z,95.73
2023-02-17T18:29:29.388Z,97.28
2023-02-17T18:32:00.858Z,98.56
2023-02-17T18:34:29.644Z,100.00
2023-02-17T18:36:58.403Z,100.00
2023-02-17T18:39:27.717Z,100.00
2023-02-17T18:41:56.497Z,100.00
2023-02-17T18:44:24.919Z,100.00
2023-02-17T18:46:53.242Z,100.00
2023-02-17T18:49:21.948Z,100.00
2023-02-17T18:51:50.845Z,100.00
2023-02-17T18:54:19.225Z,100.00
2023-02-17T18:56:47.978Z,100.00
2023-02-17T18:59:16.667Z,100.00
2023-02-17T19:01:45.408Z,100.00
2023-02-17T19:04:15.412Z,100.00
2023-02-17T19:06:43.941Z,100.00
2023-02-17T19:09:12.720Z,100.00
2023-02-17T19:11:41.498Z,100.00
2023-02-17T19:14:10.394Z,100.00
2023-02-17T19:16:39.236Z,100.00
2023-02-17T19:19:09.149Z,100.00
2023-02-17T19:21:40.130Z,100.00
2023-02-17T19:24:11.660Z,100.00
2023-02-17T19:26:40.211Z,100.00
2023-02-17T19:29:09.064Z,100.00
2023-02-17T19:31:38.264Z,100.00
2023-02-17T19:34:09.584Z,100.00
2023-02-17T19:36:38.354Z,100.00
2023-02-17T19:39:07.687Z,100.00
2023-02-17T19:41:36.619Z,100.00
2023-02-17T19:44:06.977Z,100.00
2023-02-17T19:46:35.641Z,100.00
2023-02-17T19:49:04.699Z,100.00
2023-02-17T19:51:34.042Z,100.00
2023-02-17T19:54:02.786Z,100.00
2023-02-17T19:56:33.098Z,100.00
2023-02-17T19:59:02.168Z,100.00
2023-02-17T20:01:34.464Z,100.00
2023-02-17T20:04:05.639Z,100.00
2023-02-17T20:06:40.000Z,100.00
2023-02-17T20:09:13.519Z,100.00
2023-02-17T20:11:45.264Z,100.00
2023-02-17T20:14:14.079Z,100.00
2023-02-17T20:16:42.827Z,99.47
2023-02-17T20:19:11.050Z,94.77
2023-02-17T20:21:44.758Z,92.88
2023-02-17T20:24:21.754Z,94.13
2023-02-17T20:26:53.725Z,90.92
2023-02-17T20:29:22.294Z,89.45
2023-02-17T20:31:51.315Z,87.51
2023-02-17T20:34:27.733Z,86.92
2023-02-17T20:36:57.954Z,88.10
2023-02-17T20:39:27.239Z,86.92
2023-02-17T20:41:57.109Z,83.79
2023-02-17T20:44:27.726Z,83.37
2023-02-17T20:47:03.411Z,83.69
2023-02-17T20:49:31.864Z,83.46
2023-02-17T20:52:00.644Z,81.64
2023-02-17T20:54:29.187Z,81.61
2023-02-17T20:57:01.021Z,81.79
2023-02-17T20:59:30.090Z,82.14
2023-02-17T21:01:58.572Z,82.08
2023-02-17T21:04:26.848Z,82.08
2023-02-17T21:06:56.168Z,81.94
2023-02-17T21:09:24.829Z,81.21
2023-02-17T21:11:53.245Z,82.20
2023-02-17T21:14:23.164Z,81.01
2023-02-17T21:16:51.333Z,80.49
2023-02-17T21:19:19.713Z,81.64
2023-02-17T21:21:48.525Z,78.28
2023-02-17T21:24:16.850Z,80.57
2023-02-17T21:26:45.168Z,80.24
2023-02-17T21:29:14.289Z,80.04
2023-02-17T21:31:42.859Z,80.17
2023-02-17T21:34:11.207Z,79.08
2023-02-17T21:36:40.100Z,78.84
2023-02-17T21:39:08.400Z,79.44
2023-02-17T21:41:41.208Z,80.69
2023-02-17T21:44:31.610Z,82.84
2023-02-17T21:46:59.987Z,83.57
2023-02-17T21:49:28.578Z,84.56
2023-02-17T21:51:57.124Z,85.01
2023-02-17T21:54:25.657Z,85.90
2023-02-17T21:56:54.449Z,84.42
2023-02-17T21:59:23.205Z,85.73
2023-02-17T22:01:53.251Z,83.74
2023-02-17T22:04:22.249Z,83.75
2023-02-17T22:06:50.265Z,80.13
2023-02-17T22:09:18.901Z,79.02
2023-02-17T22:11:47.680Z,79.99
2023-02-17T22:14:18.927Z,80.22
2023-02-17T22:16:48.849Z,80.78
2023-02-17T22:19:21.142Z,80.46
2023-02-17T22:21:50.760Z,80.76
2023-02-17T22:24:22.880Z,80.45
2023-02-17T22:26:51.421Z,80.33
2023-02-17T22:29:20.094Z,80.62
2023-02-17T22:31:50.467Z,81.60
2023-02-17T22:34:19.126Z,81.30
2023-02-17T22:36:47.364Z,81.87
2023-02-17T22:39:15.826Z,82.45
2023-02-17T22:41:45.040Z,81.87
2023-02-17T22:44:13.196Z,80.26
2023-02-17T22:46:41.336Z,80.91
2023-02-17T22:49:10.228Z,79.68
2023-02-17T22:51:39.679Z,79.20
2023-02-17T22:54:08.706Z,78.35
2023-02-17T22:56:37.639Z,77.44
2023-02-17T22:59:07.480Z,77.41
2023-02-17T23:01:37.939Z,76.78
2023-02-17T23:04:06.942Z,77.43
2023-02-17T23:06:37.373Z,76.95
2023-02-17T23:09:07.756Z,77.80
2023-02-17T23:11:49.914Z,77.46
2023-02-17T23:14:19.881Z,76.96
2023-02-17T23:16:48.958Z,77.24
2023-02-17T23:19:19.621Z,77.24
2023-02-17T23:21:50.920Z,77.89
2023-02-17T23:24:21.083Z,77.82
2023-02-17T23:26:50.300Z,77.22
2023-02-17T23:29:18.602Z,78.68
2023-02-17T23:31:47.246Z,79.01
2023-02-17T23:34:15.993Z,78.56
2023-02-17T23:36:46.200Z,78.98
2023-02-17T23:39:15.839Z,78.73
2023-02-17T23:41:44.812Z,79.06
2023-02-17T23:44:15.085Z,78.96
2023-02-17T23:46:44.681Z,78.34
2023-02-17T23:49:16.995Z,78.78
2023-02-17T23:51:46.819Z,76.53
2023-02-17T23:54:15.552Z,77.10
2023-02-17T23:56:43.876Z,77.10
2023-02-17T23:59:13.437Z,77.13
